Time;durP1;ratioP1;P1;durP2;ratioP2;P2;SDS_P1;SDS_P2;PMS_P1;PMS_P2;Temp;Humidity;BMP_temperature;BMP_pressure;BME280_temperature;BME280_humidity;BME280_pressure;Samples;Min_cycle;Max_cycle;Signal;HPM_P1;HPM_P2
2023/06/01 00:01:41;;;;;;;6.78;4.20;;;;;;;16.51;100.00;101612.56;5073716;28;20032;-72
2023/06/01 00:04:07;;;;;;;6.57;4.22;;;;;;;16.78;100.00;101640.91;5055687;28;20115;-73
2023/06/01 00:06:33;;;;;;;7.15;4.28;;;;;;;16.65;100.00;101625.88;5055052;28;20085;-73
2023/06/01 00:08:58;;;;;;;6.10;4.45;;;;;;;17.21;100.00;101686.88;5073352;28;20139;-72
2023/06/01 00:11:25;;;;;;;7.57;4.40;;;;;;;16.75;100.00;101666.72;5073605;28;20024;-72
2023/06/01 00:13:51;;;;;;;6.38;4.75;;;;;;;16.69;100.00;101672.00;5073252;28;20028;-72
2023/06/01 00:16:17;;;;;;;6.63;4.50;;;;;;;16.72;100.00;101671.91;5073724;28;20104;-73
2023/06/01 00:18:43;;;;;;;6.40;4.35;;;;;;;16.45;100.00;101663.16;5072831;28;20521;-72
2023/06/01 00:21:11;;;;;;;8.32;5.65;;;;;;;16.95;100.00;101664.47;5055145;28;20028;-71
2023/06/01 00:23:40;;;;;;;10.10;5.72;;;;;;;16.81;100.00;101604.88;5073634;28;20042;-72
2023/06/01 00:26:07;;;;;;;13.98;6.13;;;;;;;16.75;100.00;101651.28;5055334;28;20112;-72
2023/06/01 00:28:33;;;;;;;9.93;6.15;;;;;;;16.28;100.00;101631.09;5073480;28;20032;-71
2023/06/01 00:30:58;;;;;;;10.23;6.20;;;;;;;16.34;100.00;101624.06;5072736;28;20032;-73
2023/06/01 00:33:24;;;;;;;10.20;6.68;;;;;;;16.09;100.00;101699.13;5073214;28;20028;-72
2023/06/01 00:35:50;;;;;;;9.70;6.60;;;;;;;16.39;100.00;101739.50;5072833;28;20090;-72
2023/06/01 00:38:15;;;;;;;10.32;6.32;;;;;;;16.43;100.00;101767.63;5073331;28;20033;-72
2023/06/01 00:40:41;;;;;;;9.02;6.78;;;;;;;15.97;100.00;101725.06;5072931;28;20475;-71
2023/06/01 00:43:06;;;;;;;8.05;6.53;;;;;;;15.56;100.00;101708.00;5073033;28;20036;-72
2023/06/01 00:45:31;;;;;;;10.30;6.43;;;;;;;15.96;100.00;101793.50;5073079;28;20047;-72
2023/06/01 00:47:57;;;;;;;10.95;6.45;;;;;;;15.63;100.00;101752.31;5072990;28;20035;-74
2023/06/01 00:50:23;;;;;;;8.40;6.15;;;;;;;15.83;100.00;101765.53;5073258;28;20024;-73
2023/06/01 00:52:50;;;;;;;10.30;6.55;;;;;;;15.61;100.00;101778.81;5072664;28;20534;-72
2023/06/01 00:55:16;;;;;;;9.85;6.50;;;;;;;16.03;100.00;101842.94;5072252;28;20051;-72
2023/06/01 00:57:43;;;;;;;10.20;6.32;;;;;;;16.16;100.00;101826.44;5054921;28;20534;-72
2023/06/01 01:00:10;;;;;;;10.65;6.47;;;;;;;15.67;100.00;101766.75;5054994;28;20031;-72
2023/06/01 01:02:40;;;;;;;13.45;6.88;;;;;;;15.71;100.00;101735.06;5072316;28;20046;-72
2023/06/01 01:05:10;;;;;;;11.15;6.70;;;;;;;16.21;100.00;101827.19;5072611;28;20146;-72
2023/06/01 01:08:05;;;;;;;10.38;6.95;;;;;;;15.93;100.00;101808.09;5072667;28;20466;-72
2023/06/01 01:10:40;;;;;;;10.90;6.82;;;;;;;16.03;100.00;101833.53;5011577;28;20132;-72
2023/06/01 01:13:14;;;;;;;9.95;6.45;;;;;;;16.25;100.00;101854.47;5053950;28;20097;-72
2023/06/01 01:15:55;;;;;;;10.75;6.40;;;;;;;16.09;100.00;101807.75;5072181;28;20032;-72
2023/06/01 01:18:32;;;;;;;11.77;6.77;;;;;;;15.72;100.00;101808.53;5072280;28;20056;-72
2023/06/01 01:21:00;;;;;;;10.05;6.60;;;;;;;16.34;100.00;101874.84;5071820;28;20025;-71
2023/06/01 01:23:58;;;;;;;11.35;6.78;;;;;;;15.85;100.00;101859.56;5072251;28;20029;-72
2023/06/01 01:26:48;;;;;;;9.55;6.75;;;;;;;15.56;100.00;101820.81;5054017;28;20028;-72
2023/06/01 01:29:15;;;;;;;7.95;6.53;;;;;;;15.32;100.00;101791.31;5071877;28;20035;-71
2023/06/01 01:31:41;;;;;;;11.68;6.88;;;;;;;15.80;100.00;101855.41;5071652;28;20107;-73
2023/06/01 01:34:09;;;;;;;7.43;6.35;;;;;;;15.89;100.00;101862.91;5071681;28;20120;-72
2023/06/01 01:36:35;;;;;;;11.88;6.90;;;;;;;15.69;100.00;101835.06;5071652;28;20021;-70
2023/06/01 01:39:01;;;;;;;8.57;6.03;;;;;;;15.90;100.00;101836.41;5071760;28;20028;-72
2023/06/01 01:41:27;;;;;;;10.18;6.07;;;;;;;16.19;100.00;101904.22;5071590;28;20391;-72
2023/06/01 01:43:53;;;;;;;10.95;6.18;;;;;;;16.01;100.00;101881.47;5071833;28;20024;-72
2023/06/01 01:46:27;;;;;;;7.25;6.20;;;;;;;15.38;100.00;101808.28;5071513;28;20032;-72
2023/06/01 01:49:07;;;;;;;10.82;6.78;;;;;;;16.10;100.00;101906.13;5071635;28;20066;-72
2023/06/01 01:52:00;;;;;;;9.90;6.47;;;;;;;15.75;100.00;101899.09;5054029;28;20475;-73
2023/06/01 01:54:27;;;;;;;7.65;6.20;;;;;;;15.84;100.00;101898.06;5071453;28;20032;-71
2023/06/01 01:56:58;;;;;;;9.63;6.20;;;;;;;15.69;100.00;101903.50;5053423;28;20036;-71
2023/06/01 01:59:25;;;;;;;8.90;6.20;;;;;;;15.38;100.00;101850.16;5070796;28;20056;-70
2023/06/01 02:01:50;;;;;;;8.18;6.20;;;;;;;16.19;100.00;101911.91;5053014;28;20028;-70
2023/06/01 02:04:16;;;;;;;9.25;6.68;;;;;;;15.72;100.00;101901.72;5071112;28;20036;-71
2023/06/01 02:06:41;;;;;;;12.10;6.30;;;;;;;15.79;100.00;101874.22;5071530;28;20394;-72
2023/06/01 02:09:07;;;;;;;12.68;5.90;;;;;;;15.83;100.00;101904.06;5070949;28;20029;-72
2023/06/01 02:11:35;;;;;;;9.70;6.47;;;;;;;15.47;100.00;101911.53;5070879;28;20629;-72
2023/06/01 02:14:02;;;;;;;9.73;5.90;;;;;;;15.69;100.00;101908.63;5071182;28;20036;-71
2023/06/01 02:16:27;;;;;;;10.18;5.72;;;;;;;15.56;100.00;101908.00;5070895;28;20024;-73
2023/06/01 02:18:53;;;;;;;9.05;6.20;;;;;;;14.96;100.00;101861.09;5070551;28;20495;-71
2023/06/01 02:21:18;;;;;;;8.75;5.75;;;;;;;15.49;100.00;101925.19;5070966;28;20072;-72
2023/06/01 02:23:44;;;;;;;10.48;6.35;;;;;;;15.55;100.00;101921.66;5070752;28;20032;-71
2023/06/01 02:26:10;;;;;;;11.57;6.03;;;;;;;15.07;100.00;101866.06;5070257;28;20090;-72
2023/06/01 02:28:40;;;;;;;9.32;6.45;;;;;;;15.51;100.00;101877.28;5070598;28;20048;-72
2023/06/01 02:31:06;;;;;;;12.45;6.72;;;;;;;15.33;100.00;101900.63;5070331;28;20025;-72
2023/06/01 02:33:32;;;;;;;16.17;6.60;;;;;;;15.41;100.00;101908.22;5046910;28;20032;-71
2023/06/01 02:35:58;;;;;;;10.25;5.97;;;;;;;15.07;100.00;101881.44;5052110;28;20028;-70
2023/06/01 02:38:24;;;;;;;13.45;6.45;;;;;;;15.06;100.00;101885.72;5070561;28;20032;-73
2023/06/01 02:40:49;;;;;;;12.32;6.50;;;;;;;15.05;100.00;101930.16;5070905;28;20060;-71
2023/06/01 02:43:15;;;;;;;11.32;6.45;;;;;;;14.68;100.00;101847.03;5050983;28;20059;-71
2023/06/01 02:45:40;;;;;;;11.57;6.38;;;;;;;14.87;100.00;101884.31;5070497;28;20556;-71
2023/06/01 02:48:06;;;;;;;10.18;6.75;;;;;;;14.92;100.00;101914.97;5070119;28;20033;-71
2023/06/01 02:50:31;;;;;;;11.00;6.35;;;;;;;14.95;100.00;101925.19;5070454;28;20067;-71
2023/06/01 02:52:56;;;;;;;11.88;6.65;;;;;;;15.23;100.00;101923.91;5070543;28;20115;-71
2023/06/01 02:55:22;;;;;;;9.82;7.13;;;;;;;15.01;100.00;101953.28;5070115;28;20032;-69
2023/06/01 02:57:48;;;;;;;13.68;7.72;;;;;;;15.10;100.00;101896.75;5069466;28;20750;-70
2023/06/01 03:00:17;;;;;;;12.73;8.52;;;;;;;15.45;100.00;101946.63;5051270;28;20024;-70
2023/06/01 03:02:43;;;;;;;13.75;8.45;;;;;;;15.43;100.00;101952.66;5069882;28;20089;-70
2023/06/01 03:05:09;;;;;;;17.25;9.77;;;;;;;15.12;100.00;101954.81;5051358;28;20055;-71
2023/06/01 03:07:35;;;;;;;14.77;8.48;;;;;;;15.02;100.00;101932.75;5069352;28;20032;-70
2023/06/01 03:10:01;;;;;;;13.40;9.32;;;;;;;14.93;100.00;101927.78;5069716;28;20021;-70
2023/06/01 03:12:26;;;;;;;13.63;8.98;;;;;;;15.34;100.00;101978.38;5070082;28;20124;-69
2023/06/01 03:14:51;;;;;;;16.35;10.50;;;;;;;15.31;100.00;101934.88;5047761;28;20028;-70
2023/06/01 03:17:17;;;;;;;20.95;11.80;;;;;;;14.46;100.00;101881.50;5050108;28;20094;-70
2023/06/01 03:19:42;;;;;;;19.15;13.23;;;;;;;15.16;100.00;101955.59;5050007;28;20049;-70
2023/06/01 03:22:08;;;;;;;21.75;13.57;;;;;;;15.06;100.00;101962.56;5049691;28;20110;-75
2023/06/01 03:24:34;;;;;;;22.73;13.63;;;;;;;15.13;100.00;101963.34;5050004;28;20142;-71
2023/06/01 03:27:00;;;;;;;22.67;13.63;;;;;;;15.15;100.00;101984.66;5050435;28;20025;-72
2023/06/01 03:29:26;;;;;;;24.00;13.27;;;;;;;14.99;100.00;101945.63;5050406;28;20021;-72
2023/06/01 03:31:52;;;;;;;24.10;12.65;;;;;;;15.29;100.00;102016.91;5049977;28;20041;-70
2023/06/01 03:34:17;;;;;;;23.02;12.55;;;;;;;15.35;100.00;102014.25;5051085;28;20033;-71
2023/06/01 03:36:47;;;;;;;18.85;10.98;;;;;;;15.04;100.00;101954.06;5053866;28;20036;-72
2023/06/01 03:39:15;;;;;;;13.68;9.38;;;;;;;14.69;100.00;101971.63;5036042;28;20025;-71
2023/06/01 03:41:42;;;;;;;14.15;8.43;;;;;;;15.56;100.00;102029.34;5054476;28;20422;-72
2023/06/01 03:44:09;;;;;;;11.43;8.13;;;;;;;15.51;100.00;102045.66;5054076;28;20039;-71
2023/06/01 03:46:34;;;;;;;11.85;7.85;;;;;;;15.29;100.00;102045.09;5053992;28;20028;-71
2023/06/01 03:49:00;;;;;;;10.85;7.57;;;;;;;14.88;100.00;101992.72;5035615;28;20029;-71
2023/06/01 03:51:25;;;;;;;11.15;7.82;;;;;;;14.99;100.00;102044.66;5056090;28;20075;-72
2023/06/01 03:53:51;;;;;;;14.48;7.13;;;;;;;15.39;100.00;102053.53;5070920;28;20063;-73
2023/06/01 03:56:17;;;;;;;11.07;7.68;;;;;;;15.11;100.00;101989.00;5054957;28;20502;-69
2023/06/01 03:58:42;;;;;;;17.63;8.63;;;;;;;15.28;100.00;102027.19;5073335;28;20028;-72
2023/06/01 04:01:09;;;;;;;10.15;7.93;;;;;;;15.55;100.00;102067.81;5073599;28;20043;-71
2023/06/01 04:03:36;;;;;;;15.00;8.82;;;;;;;15.05;100.00;101996.78;5055274;28;20045;-71
2023/06/01 04:06:03;;;;;;;14.85;8.85;;;;;;;15.58;100.00;102055.81;5055791;28;20101;-72
2023/06/01 04:08:29;;;;;;;11.73;8.07;;;;;;;15.51;100.00;102051.63;5055358;28;20518;-73
2023/06/01 04:10:54;;;;;;;11.70;7.97;;;;;;;15.72;100.00;102029.97;5055573;28;20070;-73
2023/06/01 04:13:20;;;;;;;12.20;7.45;;;;;;;15.53;100.00;101996.06;5073354;28;20021;-72
2023/06/01 04:15:46;;;;;;;12.38;8.13;;;;;;;15.78;100.00;102009.34;5073246;28;20025;-70
2023/06/01 04:18:12;;;;;;;10.02;7.32;;;;;;;16.09;100.00;102049.00;5072428;28;20043;-70
2023/06/01 04:20:37;;;;;;;11.85;7.75;;;;;;;15.76;100.00;101994.84;5072946;28;20032;-69
2023/06/01 04:23:02;;;;;;;11.63;7.20;;;;;;;16.50;100.00;102024.31;5072942;28;20442;-70
2023/06/01 04:25:28;;;;;;;14.35;7.50;;;;;;;16.27;100.00;102001.59;5054011;28;20071;-69
2023/06/01 04:27:54;;;;;;;13.55;7.20;;;;;;;16.35;100.00;102021.13;5053859;28;20032;-69
2023/06/01 04:30:20;;;;;;;9.63;7.43;;;;;;;16.85;100.00;102033.03;5072559;28;20037;-71
2023/06/01 04:32:47;;;;;;;13.70;7.97;;;;;;;16.61;100.00;101982.13;5072005;28;20032;-69
2023/06/01 04:35:14;;;;;;;10.40;7.20;;;;;;;16.64;100.00;101948.66;5072750;28;20039;-70
2023/06/01 04:37:41;;;;;;;14.13;7.90;;;;;;;17.09;100.00;102027.34;5072585;28;20032;-73
2023/06/01 04:40:09;;;;;;;16.30;8.23;;;;;;;17.35;100.00;102013.91;5072451;28;20115;-72
2023/06/01 04:42:38;;;;;;;14.32;7.78;;;;;;;17.56;100.00;102030.59;5055243;28;20028;-73
2023/06/01 04:45:07;;;;;;;15.20;7.38;;;;;;;17.31;100.00;101984.84;5072030;28;20025;-72
2023/06/01 04:47:44;;;;;;;12.55;7.50;;;;;;;17.33;100.00;101985.66;5053666;28;20040;-71
2023/06/01 04:50:11;;;;;;;13.70;6.40;;;;;;;18.31;100.00;101951.41;5070702;28;20500;-71
2023/06/01 04:52:40;;;;;;;11.07;6.88;;;;;;;18.07;100.00;101981.25;5072509;28;20537;-73
2023/06/01 04:55:07;;;;;;;13.10;6.95;;;;;;;17.35;100.00;102006.22;5053698;28;20037;-73
2023/06/01 04:57:35;;;;;;;12.93;7.60;;;;;;;17.99;100.00;102016.63;5053882;28;20028;-73
2023/06/01 05:00:03;;;;;;;9.05;6.82;;;;;;;18.20;100.00;101963.75;5053909;28;20119;-72
2023/06/01 05:02:29;;;;;;;11.55;7.38;;;;;;;18.57;100.00;102002.22;5054664;28;20502;-72
2023/06/01 05:04:55;;;;;;;11.20;7.65;;;;;;;17.21;100.00;101943.97;5072159;28;20060;-73
2023/06/01 05:07:21;;;;;;;10.02;6.95;;;;;;;18.23;100.00;102012.56;5072747;28;20064;-73
2023/06/01 05:09:47;;;;;;;9.15;6.72;;;;;;;18.16;100.00;101933.81;5072019;28;20021;-73
2023/06/01 05:12:12;;;;;;;8.77;7.18;;;;;;;18.65;100.00;101985.66;5071791;28;20024;-72
2023/06/01 05:14:37;;;;;;;11.57;6.90;;;;;;;18.78;100.00;102011.91;5053831;28;20051;-73
2023/06/01 05:17:03;;;;;;;9.02;6.78;;;;;;;18.81;100.00;101961.13;5071593;28;20492;-72
2023/06/01 05:19:29;;;;;;;11.85;6.55;;;;;;;19.34;100.00;101974.94;5071915;28;20167;-74
2023/06/01 05:21:55;;;;;;;9.25;6.90;;;;;;;18.57;100.00;101946.38;5071687;28;20032;-73
2023/06/01 05:24:21;;;;;;;10.20;6.70;;;;;;;18.97;100.00;101972.66;5072021;28;20560;-73
2023/06/01 05:26:46;;;;;;;9.00;6.68;;;;;;;19.53;100.00;101985.53;5059384;28;20029;-73
2023/06/01 05:29:11;;;;;;;11.98;6.82;;;;;;;19.42;100.00;101980.72;5034280;28;20025;-73
2023/06/01 05:31:37;;;;;;;12.27;7.97;;;;;;;19.54;100.00;101930.44;5052098;28;20078;-73
2023/06/01 05:34:02;;;;;;;10.35;7.32;;;;;;;19.79;100.00;101957.09;5051642;28;20033;-73
2023/06/01 05:36:28;;;;;;;10.73;7.28;;;;;;;19.79;100.00;101964.84;5051440;28;20024;-73
2023/06/01 05:38:54;;;;;;;10.30;7.40;;;;;;;19.46;100.00;101920.38;5051940;28;20503;-73
2023/06/01 05:41:19;;;;;;;11.65;8.52;;;;;;;19.78;100.00;101935.63;5033680;28;20069;-72
2023/06/01 05:43:44;;;;;;;12.93;8.90;;;;;;;20.54;100.00;102003.50;5052299;28;20040;-73
2023/06/01 05:46:10;;;;;;;16.80;8.20;;;;;;;20.69;100.00;101960.72;5051204;28;20040;-73
2023/06/01 05:48:35;;;;;;;13.95;8.95;;;;;;;21.01;100.00;101941.38;5033839;28;20365;-73
2023/06/01 05:51:03;;;;;;;11.75;7.57;;;;;;;21.11;100.00;101977.22;5054172;28;20445;-73
2023/06/01 05:53:29;;;;;;;10.05;7.03;;;;;;;20.63;100.00;101961.81;5053570;28;20082;-74
2023/06/01 05:55:55;;;;;;;11.40;6.22;;;;;;;20.23;100.00;101909.06;5071431;28;20017;-73
2023/06/01 05:58:20;;;;;;;10.35;6.50;;;;;;;21.01;100.00;101972.44;5053436;28;20029;-73
2023/06/01 06:00:46;;;;;;;7.13;6.30;;;;;;;21.65;100.00;101984.47;5061639;28;20480;-73
2023/06/01 06:03:12;;;;;;;10.20;6.28;;;;;;;21.12;100.00;101963.38;5051088;28;20057;-73
2023/06/01 06:05:37;;;;;;;10.93;6.28;;;;;;;21.67;100.00;101954.19;5051035;28;20064;-73
2023/06/01 06:08:03;;;;;;;8.77;5.72;;;;;;;21.66;100.00;101942.16;5051020;28;20036;-73
2023/06/01 06:10:28;;;;;;;7.75;5.30;;;;;;;22.30;100.00;101946.22;5050747;28;20116;-73
2023/06/01 06:12:54;;;;;;;7.70;5.43;;;;;;;21.85;100.00;101932.72;5050526;28;20399;-73
2023/06/01 06:15:19;;;;;;;9.70;5.35;;;;;;;22.22;100.00;101882.69;5050474;28;20036;-75
2023/06/01 06:17:45;;;;;;;6.95;5.05;;;;;;;22.27;100.00;101898.88;5050720;28;20032;-72
2023/06/01 06:20:11;;;;;;;6.70;5.07;;;;;;;21.08;100.00;101836.78;5050311;28;20060;-72
2023/06/01 06:22:37;;;;;;;8.30;5.20;;;;;;;21.98;100.00;101856.16;5051151;28;20084;-74
2023/06/01 06:25:02;;;;;;;10.20;5.18;;;;;;;22.18;100.00;101886.34;5050645;28;20063;-73
2023/06/01 06:27:28;;;;;;;6.78;5.35;;;;;;;21.84;100.00;101829.16;5032391;28;20471;-73
2023/06/01 06:29:53;;;;;;;7.43;5.05;;;;;;;22.81;100.00;101834.06;5050894;28;20029;-73
2023/06/01 06:32:22;;;;;;;7.05;5.20;;;;;;;22.25;100.00;101813.41;5050659;28;20048;-73
2023/06/01 06:34:47;;;;;;;8.20;5.03;;;;;;;22.95;100.00;101802.25;5050801;28;20032;-74
2023/06/01 06:37:13;;;;;;;6.38;4.80;;;;;;;23.08;100.00;101818.88;5050667;28;20094;-73
2023/06/01 06:39:38;;;;;;;7.60;4.85;;;;;;;22.46;100.00;101779.59;5051094;28;20040;-73
2023/06/01 06:42:05;;;;;;;7.97;5.07;;;;;;;22.19;100.00;101746.31;5032997;28;20033;-73
2023/06/01 06:44:31;;;;;;;6.57;5.05;;;;;;;22.27;100.00;101785.66;5050395;28;20037;-72
2023/06/01 06:46:59;;;;;;;9.27;5.13;;;;;;;23.12;100.00;101725.22;5032896;28;20407;-73
2023/06/01 06:49:24;;;;;;;10.88;5.55;;;;;;;23.45;100.00;101766.78;5050555;28;20039;-72
2023/06/01 06:51:49;;;;;;;9.90;5.68;;;;;;;23.46;100.00;101734.69;5050576;28;20036;-72
2023/06/01 06:54:15;;;;;;;7.18;5.18;;;;;;;23.49;100.00;101721.56;5032410;28;20052;-73
2023/06/01 06:56:40;;;;;;;7.65;4.82;;;;;;;22.64;100.00;101669.81;5050790;28;20518;-72
2023/06/01 06:59:06;;;;;;;6.38;4.80;;;;;;;23.04;100.00;101727.34;5032440;28;20036;-73
2023/06/01 07:01:35;;;;;;;7.72;4.65;;;;;;;23.82;100.00;101672.09;5049899;28;20033;-74
2023/06/01 07:04:01;;;;;;;10.02;5.22;;;;;;;22.95;100.00;101613.66;5050286;28;20061;-73
2023/06/01 07:06:26;;;;;;;8.55;4.70;;;;;;;24.30;100.00;101710.13;5050855;28;20549;-73
2023/06/01 07:08:52;;;;;;;7.88;4.95;;;;;;;23.66;100.00;101674.72;5051057;28;20029;-74
2023/06/01 07:11:18;;;;;;;10.43;4.97;;;;;;;24.14;100.00;101697.16;5054515;28;20029;-73
2023/06/01 07:13:44;;;;;;;7.65;4.80;;;;;;;23.27;100.00;101617.13;5054549;28;20041;-73
2023/06/01 07:16:09;;;;;;;7.95;4.90;;;;;;;24.88;100.00;101674.56;5054363;28;20464;-74
2023/06/01 07:18:35;;;;;;;8.63;4.55;;;;;;;23.74;100.00;101656.09;5054561;28;20049;-74
2023/06/01 07:21:01;;;;;;;6.95;4.70;;;;;;;25.18;100.00;101641.47;5054299;28;20029;-73
2023/06/01 07:23:27;;;;;;;6.55;4.32;;;;;;;25.00;100.00;101537.66;5035694;28;20404;-73
2023/06/01 07:25:52;;;;;;;6.55;4.40;;;;;;;24.31;100.00;101501.16;5054432;28;20029;-74
2023/06/01 07:28:18;;;;;;;10.48;4.75;;;;;;;24.67;100.00;101442.50;5054417;28;20025;-73
2023/06/01 07:30:43;;;;;;;7.03;4.40;;;;;;;24.77;100.00;101464.44;5054023;28;20036;-73
2023/06/01 07:33:08;;;;;;;8.70;4.20;;;;;;;25.60;100.00;101477.25;5036472;28;20492;-73
2023/06/01 07:35:34;;;;;;;6.28;3.90;;;;;;;24.85;100.00;101384.13;5035568;28;20124;-73
2023/06/01 07:38:03;;;;;;;8.45;4.32;;;;;;;25.54;100.00;101430.75;5054263;28;20033;-73
2023/06/01 07:40:29;;;;;;;6.63;4.05;;;;;;;24.93;100.00;101384.44;5036291;28;20036;-72
2023/06/01 07:42:54;;;;;;;5.68;4.00;;;;;;;24.87;100.00;101337.16;5061599;28;20055;-73
2023/06/01 07:45:20;;;;;;;5.30;3.92;;;;;;;24.91;100.00;101274.41;5055646;28;20070;-73
2023/06/01 07:47:45;;;;;;;6.28;3.50;;;;;;;25.91;100.00;101314.38;5072635;28;20029;-73
2023/06/01 07:50:12;;;;;;;7.70;3.97;;;;;;;26.22;100.00;101289.59;5073505;28;20089;-73
2023/06/01 07:52:37;;;;;;;5.80;3.70;;;;;;;25.52;100.00;101254.59;5072823;28;20495;-73
2023/06/01 07:55:09;;;;;;;7.03;3.72;;;;;;;26.06;100.00;101203.81;5073873;28;20063;-73
2023/06/01 07:57:35;;;;;;;8.07;3.78;;;;;;;26.26;100.00;101194.53;5073803;28;20051;-72
2023/06/01 08:00:01;;;;;;;8.02;3.70;;;;;;;27.43;100.00;101167.16;5073568;28;20406;-74
2023/06/01 08:02:26;;;;;;;6.88;3.78;;;;;;;26.71;100.00;101112.81;5073511;28;20036;-73
2023/06/01 08:04:52;;;;;;;6.88;3.65;;;;;;;25.68;100.00;101042.34;5055905;28;20021;-73
2023/06/01 08:07:18;;;;;;;6.30;3.50;;;;;;;26.00;100.00;101036.53;5073332;28;20036;-73
2023/06/01 08:09:44;;;;;;;8.10;3.65;;;;;;;25.64;100.00;100973.16;5055614;28;20450;-73
2023/06/01 08:12:11;;;;;;;8.20;3.38;;;;;;;26.17;100.00;101030.88;5073197;28;20043;-73
2023/06/01 08:14:37;;;;;;;5.75;3.40;;;;;;;26.66;100.00;101015.75;5073048;28;20033;-74
2023/06/01 08:17:13;;;;;;;5.70;3.53;;;;;;;26.59;100.00;101015.38;5073310;28;20039;-73
2023/06/01 08:19:42;;;;;;;6.18;3.72;;;;;;;26.82;100.00;100990.09;5072888;28;20511;-73
2023/06/01 08:22:07;;;;;;;6.72;3.67;;;;;;;26.37;100.00;100934.50;5073317;28;20068;-73
2023/06/01 08:24:33;;;;;;;8.32;3.40;;;;;;;26.97;100.00;100952.34;5073371;28;20522;-73
2023/06/01 08:27:05;;;;;;;5.25;3.70;;;;;;;27.22;100.00;100925.88;5073315;28;20024;-73
2023/06/01 08:29:31;;;;;;;6.50;3.45;;;;;;;27.49;100.00;100839.19;5055436;28;20036;-74
2023/06/01 08:31:59;;;;;;;5.30;3.47;;;;;;;27.43;100.00;100615.78;5073358;28;20032;-73
2023/06/01 08:34:25;;;;;;;11.63;3.40;;;;;;;27.31;100.00;100306.00;5073208;28;20503;-73
2023/06/01 08:36:50;;;;;;;4.60;3.13;;;;;;;27.14;100.00;100183.13;5055035;28;20066;-73
2023/06/01 08:39:22;;;;;;;6.03;3.67;;;;;;;26.66;100.00;100164.19;5055010;28;20131;-73
2023/06/01 08:42:07;;;;;;;5.72;3.42;;;;;;;27.62;100.00;100133.28;5072981;28;20490;-73
2023/06/01 08:44:40;;;;;;;6.68;3.38;;;;;;;27.43;100.00;100111.53;5054901;28;20029;-73
2023/06/01 08:47:07;;;;;;;5.05;3.80;;;;;;;27.98;100.00;100087.94;5072947;28;20032;-73
2023/06/01 08:49:34;;;;;;;7.10;3.63;;;;;;;28.24;100.00;100087.00;5072888;28;20024;-74
2023/06/01 08:52:08;;;;;;;5.10;3.30;;;;;;;28.41;100.00;100068.75;5072201;28;20033;-73
2023/06/01 08:54:33;;;;;;;9.43;4.40;;;;;;;27.26;100.00;99967.81;5071371;28;20029;-73
2023/06/01 08:57:02;;;;;;;6.43;3.90;;;;;;;27.00;100.00;100959.13;5072876;28;20407;-73
2023/06/01 08:59:28;;;;;;;8.77;4.20;;;;;;;27.56;100.00;99671.41;5071453;28;20502;-73
2023/06/01 09:01:54;;;;;;;6.03;3.53;;;;;;;28.41;100.00;99545.50;5072461;28;20032;-73
2023/06/01 09:04:20;;;;;;;5.22;4.20;;;;;;;28.31;100.00;99578.88;5072021;28;20572;-73
2023/06/01 09:06:45;;;;;;;7.28;4.20;;;;;;;28.03;100.00;99769.25;5071465;28;20101;-73
2023/06/01 09:09:12;;;;;;;4.55;3.95;;;;;;;27.64;100.00;99647.91;5072566;28;20032;-73
2023/06/01 09:11:38;;;;;;;6.43;4.00;;;;;;;27.20;100.00;99778.63;5072342;28;20491;-73
2023/06/01 09:14:23;;;;;;;8.45;4.50;;;;;;;27.85;100.00;99816.41;5072510;28;20093;-72
2023/06/01 09:16:50;;;;;;;7.28;4.90;;;;;;;28.63;100.00;99741.09;5054379;28;20404;-73
2023/06/01 09:19:20;;;;;;;7.97;3.63;;;;;;;28.68;100.00;99660.31;4721104;28;10000465;-74
2023/06/01 09:21:57;;;;;;;5.32;3.65;;;;;;;27.72;100.00;99653.97;5067341;28;20033;-76
2023/06/01 09:24:22;;;;;;;6.95;3.85;;;;;;;26.82;100.00;99679.03;5050971;28;20140;-73
2023/06/01 09:26:48;;;;;;;7.13;4.05;;;;;;;27.50;100.00;99659.78;5069629;28;20024;-74
2023/06/01 09:29:14;;;;;;;6.07;3.88;;;;;;;27.57;100.00;99658.19;5069685;28;20031;-75
2023/06/01 09:31:45;;;;;;;6.28;4.15;;;;;;;27.38;100.00;99680.16;5068448;28;20415;-73
2023/06/01 09:34:18;;;;;;;7.80;4.03;;;;;;;28.18;100.00;99686.59;5069349;28;20115;-74
2023/06/01 09:36:44;;;;;;;6.28;3.95;;;;;;;27.35;100.00;99782.34;5069784;28;21741;-75
2023/06/01 09:39:11;;;;;;;6.72;3.95;;;;;;;28.05;100.00;99796.91;5069299;28;20117;-74
2023/06/01 09:42:01;;;;;;;7.35;3.70;;;;;;;28.38;100.00;99865.00;5068867;28;20029;-73
2023/06/01 09:44:30;;;;;;;6.95;3.90;;;;;;;27.69;100.00;99915.63;5063083;28;20151;-75
2023/06/01 09:47:01;;;;;;;7.03;3.88;;;;;;;28.60;100.00;99853.97;5069718;28;20024;-73
2023/06/01 09:49:33;;;;;;;7.40;5.13;;;;;;;27.61;100.00;99953.97;5070670;28;20058;-78
2023/06/01 09:52:05;;;;;;;6.60;3.80;;;;;;;27.71;100.00;99947.66;5061772;28;20496;-73
2023/06/01 09:54:34;;;;;;;5.78;3.88;;;;;;;28.28;100.00;99981.09;5071390;28;20029;-74
2023/06/01 09:57:02;;;;;;;5.72;3.67;;;;;;;28.45;100.00;99966.25;5070768;28;20029;-74
2023/06/01 09:59:29;;;;;;;10.73;3.70;;;;;;;28.25;100.00;100032.88;5071297;28;20059;-75
2023/06/01 10:01:57;;;;;;;7.57;4.53;;;;;;;27.81;100.00;100070.44;5071654;28;20104;-74
2023/06/01 10:04:25;;;;;;;6.13;4.28;;;;;;;28.03;100.00;100070.81;5071196;28;20032;-75
2023/06/01 10:06:53;;;;;;;8.45;4.22;;;;;;;28.39;100.00;99998.28;5071513;28;20028;-74
2023/06/01 10:09:20;;;;;;;8.70;4.53;;;;;;;28.03;100.00;100015.06;5071343;28;20029;-73
2023/06/01 10:11:52;;;;;;;7.63;4.22;;;;;;;28.60;100.00;100077.28;5071167;28;20506;-74
2023/06/01 10:14:18;;;;;;;9.43;4.57;;;;;;;29.10;100.00;100072.91;5070812;28;20483;-74
2023/06/01 10:16:43;;;;;;;8.82;5.18;;;;;;;29.12;100.00;100068.31;5070948;28;20032;-73
2023/06/01 10:19:10;;;;;;;7.15;4.20;;;;;;;28.07;100.00;100050.38;5052528;28;20045;-75
2023/06/01 10:21:39;;;;;;;12.90;4.22;;;;;;;28.63;100.00;100016.75;5070415;28;20025;-74
2023/06/01 10:24:07;;;;;;;5.40;3.83;;;;;;;28.52;100.00;99942.91;5070061;28;20029;-74
2023/06/01 10:26:45;;;;;;;5.70;3.55;;;;;;;28.04;100.00;99991.41;5070560;28;20170;-74
2023/06/01 10:29:11;;;;;;;6.22;3.85;;;;;;;28.77;100.00;100002.25;5052236;28;20060;-74
2023/06/01 10:31:42;;;;;;;7.38;3.78;;;;;;;29.30;100.00;99980.94;5070165;28;20248;-74
2023/06/01 10:34:09;;;;;;;6.45;4.57;;;;;;;28.59;100.00;100124.53;5069781;28;20032;-75
2023/06/01 10:36:53;;;;;;;6.10;4.00;;;;;;;29.18;100.00;100093.09;5052007;28;20093;-75
2023/06/01 10:39:25;;;;;;;7.65;3.78;;;;;;;27.75;100.00;100060.59;5070696;28;20032;-74
2023/06/01 10:41:51;;;;;;;5.60;3.92;;;;;;;28.95;100.00;100100.69;5070091;28;20096;-74
2023/06/01 10:44:41;;;;;;;8.10;5.55;;;;;;;28.43;100.00;100182.78;5068670;28;20079;-74
2023/06/01 10:47:12;;;;;;;8.48;4.53;;;;;;;28.73;100.00;100216.41;5070048;28;20043;-74
2023/06/01 10:49:46;;;;;;;6.30;4.07;;;;;;;28.42;100.00;100178.53;5070139;28;20402;-74
2023/06/01 10:52:25;;;;;;;6.22;4.05;;;;;;;28.39;100.00;100066.31;5069938;28;20561;-74
2023/06/01 10:54:51;;;;;;;7.53;3.75;;;;;;;28.51;100.00;100099.09;5052114;28;20036;-75
2023/06/01 10:57:25;;;;;;;6.47;4.10;;;;;;;28.54;100.00;100160.78;5069250;28;20036;-74
2023/06/01 11:00:13;;;;;;;7.38;4.40;;;;;;;28.42;100.00;100155.00;5069977;28;20032;-75
2023/06/01 11:02:44;;;;;;;6.53;4.18;;;;;;;29.78;100.00;100152.28;5052077;28;20041;-74
2023/06/01 11:05:35;;;;;;;6.60;3.72;;;;;;;29.10;100.00;100188.16;5069857;28;20090;-74
2023/06/01 11:08:01;;;;;;;9.90;4.22;;;;;;;28.26;100.00;100194.09;5051820;28;20097;-75
2023/06/01 11:10:55;;;;;;;9.48;4.93;;;;;;;28.31;100.00;100251.22;5069772;28;20028;-74
2023/06/01 11:13:31;;;;;;;6.40;4.20;;;;;;;28.23;100.00;100258.00;5051949;28;20051;-74
2023/06/01 11:16:07;;;;;;;6.95;4.45;;;;;;;28.16;100.00;100233.41;5070113;28;20427;-74
2023/06/01 11:18:49;;;;;;;7.97;4.85;;;;;;;28.27;100.00;100263.75;5026160;28;1239234;-74